Oologah, Oklahoma
Current Conditions -  °F | °C
As of 3:35 PM on Saturday 25 Oct 2014 (Local Time) from KGCM Reporting Station
Clear Clear  
Wind Chill: 82°   Ceiling: Unl
Heat Index: 83°   Visibility: 10mi
Dew Point: 61°   Wind: 5mph
Humidity: 48%   Direction: 170°S
Pressure: 30.05"   Gusts: NA
Location:  36.45°N, 95.71°W
Report Text: KGCM 252035Z AUTO 17004KT 10SM CLR 28/16 A3005 RMK AO2
Loading
Personal Weather Stations






























Interactive Weather Map
Tropical Storm Tracking
New forecast layout! Learn more

10-Day Weather Forecast

Advertisements
Track Severe Weather on mobile